Nearby METAR Reports

 

EGNM - Leeds And Bradford, United Kingdom
Distance from station: N 11mi, 18km
Updated: 26/08/2019 05:50
Fog
Fog
 Wind from W
Wind: W 7 mph , 11 km/h
Temperature: 14°C
Dew Point: 13°C
Humidity: 94%
Barometer: 1018 hPa
Summary: Fog
Visibility: 0 mile , 1 km
2019/08/26 05:50 EGNM 260550Z 27006KT 230V300 0500 R32/0600 FG VV/// 14/13 Q1018
EGXU - Linton-On-Ouse, United Kingdom
Distance from station: NNE 28mi, 45km
Updated: 26/08/2019 05:50
Clear
Clear
 Wind from E
Wind: E 2 mph , 4 km/h
Temperature: 13°C
Dew Point: 13°C
Humidity: 100%
Barometer: 1018 hPa
Clouds: Clear
Visibility: 3 miles , 5 km
2019/08/26 05:50 EGXU 260550Z AUTO 10002KT 4600 // NCD 13/13 Q1018
 
EGCN - Doncaster Sheffield, United Kingdom
Distance from station: ESE 30mi, 45km
Updated: 26/08/2019 05:50
Partly cloudy
Partly cloudy
 Wind from varies
Wind: varies 1 mph , 2 km/h
Temperature: 14°C
Dew Point: 13°C
Humidity: 94%
Barometer: 1019 hPa
Clouds: Partly cloudy
Visibility: 5 miles , 8 km
2019/08/26 05:50 EGCN 260550Z VRB01KT 8000 NSC 14/13 Q1019
EGXZ - Topcliffe RAF, United Kingdom
Distance from station: NNE 36mi, 57km
Updated: 26/08/2019 05:50
Mostly cloudy
Mostly cloudy
 Wind from ENE
Wind: ENE 1 mph , 2 km/h
Temperature: 12°C
Dew Point: 11°C
Humidity: 94%
Barometer: 1018 hPa
Clouds: Mostly cloudy
Visibility: 2 miles , 3 km
Cloud details: Mostly cloudy 30 m
2019/08/26 05:50 EGXZ 260550Z AUTO 06001KT 3100 BKN001/// 12/11 Q1018
 
EGCC - Manchester Intl, United Kingdom
Distance from station: SW 36mi, 58km
Updated: 26/08/2019 05:50
Mist, Overcast
Mist, Overcast
 Wind from varies
Wind: varies 3 mph , 6 km/h
Temperature: 15°C
Dew Point: 15°C
Humidity: 100%
Barometer: 1019 hPa
Summary: Mist
Clouds: Overcast
Visibility: 3 miles , 5 km
Cloud details: Overcast 183 m
2019/08/26 05:50 EGCC 260550Z AUTO VRB03KT 5000 BR OVC006 15/15 Q1019
EGXE - Leeming RAF, United Kingdom
Distance from station: N 40mi, 65km
Updated: 26/08/2019 05:50
Clear
Clear
 Wind from SSW
Wind: SSW 2 mph , 4 km/h
Temperature: 14°C
Dew Point: 13°C
Humidity: 94%
Barometer: 1018 hPa
Clouds: Clear
Visibility: 6 miles , 10 km
2019/08/26 05:50 EGXE 260550Z AUTO 20002KT 9999 NCD 14/13 Q1018